Terminal Aerodrome Forecast
Issued by NWS Quad Cities IA IL

Home | Current Version | Previous Version | Text Only | Print | Product List | Glossary On
Versions: 1 2 3 4 5 6 7 8 9 10 11 12 13 14 15 16 17 18 19 20 21 22 23
000
FTUS43 KDVN 290520
TAFMLI
TAF
KMLI 290520Z 2906/3006 VRB03KT P6SM BKN120
     FM290900 13005KT P6SM VCSH OVC080
     FM291500 18010KT P6SM BKN120
     FM292200 21010KT P6SM VCTS BKN050CB=

USA.gov is the U.S. government's official web portal to all federal, state and local government web resources and services.